createdAt,value
2022-09-18T00:01:56.963Z,9.02
2022-09-18T00:03:57.867Z,8.98
2022-09-18T00:05:59.660Z,9.03
2022-09-18T00:08:01.159Z,9.02
2022-09-18T00:10:02.825Z,8.99
2022-09-18T00:12:04.548Z,8.97
2022-09-18T00:14:05.621Z,8.96
2022-09-18T00:16:07.405Z,8.99
2022-09-18T00:18:08.433Z,8.98
2022-09-18T00:20:10.152Z,8.99
2022-09-18T00:22:11.944Z,9.06
2022-09-18T00:26:14.071Z,9.11
2022-09-18T00:28:15.329Z,9.1
2022-09-18T00:30:16.559Z,9.08
2022-09-18T00:32:17.551Z,9.12
2022-09-18T00:34:19.271Z,9.12
2022-09-18T00:36:20.604Z,9.11
2022-09-18T00:38:22.482Z,9.08
2022-09-18T00:40:23.825Z,9.13
2022-09-18T00:42:25.488Z,9.14
2022-09-18T00:44:27.253Z,9.12
2022-09-18T00:46:28.864Z,9.19
2022-09-18T00:48:30.018Z,9.2
2022-09-18T00:50:31.627Z,9.22
2022-09-18T00:52:32.924Z,9.22
2022-09-18T00:54:34.741Z,9.2
2022-09-18T00:56:36.047Z,9.22
2022-09-18T00:58:37.192Z,9.19
2022-09-18T01:00:38.778Z,9.2
2022-09-18T01:02:40.534Z,9.19
2022-09-18T01:04:42.411Z,9.19
2022-09-18T01:06:44.148Z,9.19
2022-09-18T01:08:45.093Z,9.18
2022-09-18T01:10:46.247Z,9.17
2022-09-18T01:12:47.755Z,9.18
2022-09-18T01:14:49.441Z,9.15
2022-09-18T01:16:51.265Z,9.17
2022-09-18T01:18:52.517Z,9.18
2022-09-18T01:22:55.411Z,9.3
2022-09-18T01:24:57.274Z,9.27
2022-09-18T01:26:58.361Z,9.3
2022-09-18T01:29:00.109Z,9.32
2022-09-18T01:31:01.753Z,9.31
2022-09-18T01:33:03.255Z,9.36
2022-09-18T01:35:10.083Z,9.35
2022-09-18T01:37:06.454Z,9.3
2022-09-18T01:39:07.832Z,9.38
2022-09-18T01:41:09.599Z,9.37
2022-09-18T01:43:11.358Z,9.42
2022-09-18T01:45:12.811Z,9.38
2022-09-18T01:47:14.135Z,9.4
2022-09-18T01:49:15.126Z,9.37
2022-09-18T01:51:16.540Z,9.38
2022-09-18T01:53:18.495Z,9.36
2022-09-18T01:55:19.482Z,9.35
2022-09-18T01:57:21.373Z,9.41
2022-09-18T01:59:23.102Z,9.38
2022-09-18T02:01:24.412Z,9.35
2022-09-18T02:03:26.277Z,9.37
2022-09-18T02:05:27.685Z,9.33
2022-09-18T02:07:29.180Z,9.36
2022-09-18T02:09:30.642Z,9.36
2022-09-18T02:11:32.162Z,9.38
2022-09-18T02:13:33.705Z,9.41
2022-09-18T02:15:35.413Z,9.37
2022-09-18T02:17:36.943Z,9.43
2022-09-18T02:19:38.291Z,9.42
2022-09-18T02:21:39.446Z,9.38
2022-09-18T02:23:41.042Z,9.4
2022-09-18T02:25:42.035Z,9.39
2022-09-18T02:27:43.026Z,9.43
2022-09-18T02:29:44.363Z,9.47
2022-09-18T02:31:45.679Z,9.43
2022-09-18T02:33:46.884Z,9.45
2022-09-18T02:35:48.601Z,9.48
2022-09-18T02:37:50.198Z,9.46
2022-09-18T02:39:51.943Z,9.49
2022-09-18T02:41:52.996Z,9.48
2022-09-18T02:43:54.832Z,9.46
2022-09-18T02:45:56.680Z,9.48
2022-09-18T02:47:58.265Z,9.45
2022-09-18T02:49:59.508Z,9.47
2022-09-18T02:52:01.308Z,9.45
2022-09-18T02:54:02.441Z,9.49
2022-09-18T02:56:04.325Z,9.48
2022-09-18T02:58:05.426Z,9.47
2022-09-18T03:00:06.936Z,9.43
2022-09-18T03:02:08.745Z,9.49
2022-09-18T03:04:09.822Z,9.49
2022-09-18T03:06:11.752Z,9.47
2022-09-18T03:08:13.491Z,9.45
2022-09-18T03:10:14.882Z,9.48
2022-09-18T03:12:16.317Z,9.48
2022-09-18T03:14:17.224Z,9.49
2022-09-18T03:16:18.554Z,9.46
2022-09-18T03:18:20.445Z,9.42
2022-09-18T03:20:21.769Z,9.39
2022-09-18T03:22:23.187Z,9.37
2022-09-18T03:24:24.482Z,9.3
2022-09-18T03:26:26.131Z,9.36
2022-09-18T03:28:27.120Z,9.36
2022-09-18T03:32:29.927Z,9.35
2022-09-18T03:34:30.937Z,9.35
2022-09-18T03:36:32.313Z,9.35
2022-09-18T03:38:33.622Z,9.4
2022-09-18T03:40:34.791Z,9.41
2022-09-18T03:42:35.734Z,9.43
2022-09-18T03:44:36.810Z,9.4
2022-09-18T03:46:37.778Z,9.42
2022-09-18T03:48:39.002Z,9.41
2022-09-18T03:50:40.738Z,9.44
2022-09-18T03:52:42.007Z,9.45
2022-09-18T03:54:43.314Z,9.46
2022-09-18T03:56:44.598Z,9.43
2022-09-18T03:58:45.937Z,9.42
2022-09-18T04:00:47.308Z,9.43
2022-09-18T04:02:49.132Z,9.41
2022-09-18T04:04:50.997Z,9.38
2022-09-18T04:06:52.311Z,9.43
2022-09-18T04:08:53.498Z,9.41
2022-09-18T04:10:54.651Z,9.41
2022-09-18T04:12:56.082Z,9.41
2022-09-18T04:14:57.419Z,9.45
2022-09-18T04:16:59.340Z,9.37
2022-09-18T04:19:00.909Z,9.41
2022-09-18T04:21:01.882Z,9.33
2022-09-18T04:23:03.475Z,9.32
2022-09-18T04:25:04.758Z,9.32
2022-09-18T04:27:06.372Z,9.33
2022-09-18T04:29:07.939Z,9.35
2022-09-18T04:31:09.717Z,9.32
2022-09-18T04:33:11.292Z,9.33
2022-09-18T04:35:12.327Z,9.3
2022-09-18T04:37:13.971Z,9.32
2022-09-18T04:39:15.052Z,9.35
2022-09-18T04:41:16.709Z,9.36
2022-09-18T04:44:01.781Z,9.37
2022-09-18T04:46:03.389Z,9.4
2022-09-18T04:48:04.683Z,9.36
2022-09-18T04:50:05.859Z,9.36
2022-09-18T04:52:07.347Z,9.38
2022-09-18T04:54:08.517Z,9.35
2022-09-18T04:56:09.584Z,9.35
2022-09-18T04:58:11.156Z,9.36
2022-09-18T05:00:12.202Z,9.37
2022-09-18T05:02:13.623Z,9.33
2022-09-18T05:04:14.797Z,9.33
2022-09-18T05:06:16.628Z,9.31
2022-09-18T05:08:18.457Z,9.3
2022-09-18T05:10:20.319Z,9.31
2022-09-18T05:12:21.858Z,9.32
2022-09-18T05:14:23.361Z,9.31
2022-09-18T05:16:24.948Z,9.32
2022-09-18T05:18:26.193Z,9.3
2022-09-18T05:20:27.905Z,9.31
2022-09-18T05:22:29.807Z,9.32
2022-09-18T05:24:31.174Z,9.35
2022-09-18T05:26:32.725Z,9.35
2022-09-18T05:28:34.447Z,9.31
2022-09-18T05:30:35.452Z,9.3
2022-09-18T05:32:36.983Z,9.33
2022-09-18T05:34:38.540Z,9.4
2022-09-18T05:36:40.199Z,9.35
2022-09-18T05:38:41.175Z,9.42
2022-09-18T05:40:42.852Z,9.38
2022-09-18T05:42:43.817Z,9.39
2022-09-18T05:44:45.046Z,9.42
2022-09-18T05:46:46.755Z,9.4
2022-09-18T05:48:48.375Z,9.41
2022-09-18T05:50:49.497Z,9.45
2022-09-18T05:52:50.465Z,9.43
2022-09-18T05:54:51.956Z,9.45
2022-09-18T05:56:53.231Z,9.46
2022-09-18T05:58:54.800Z,9.44
2022-09-18T06:00:56.018Z,9.46
2022-09-18T06:02:57.104Z,9.48
2022-09-18T06:04:58.285Z,9.51
2022-09-18T06:06:59.345Z,9.49
2022-09-18T06:09:00.857Z,9.53
2022-09-18T06:11:02.102Z,9.53
2022-09-18T06:13:03.331Z,9.53
2022-09-18T06:15:05.012Z,9.54
2022-09-18T06:17:06.699Z,9.53
2022-09-18T06:19:08.257Z,9.56
2022-09-18T06:21:09.522Z,9.55
2022-09-18T06:23:11.067Z,9.58
2022-09-18T06:25:12.108Z,9.56
2022-09-18T06:27:13.344Z,9.6
2022-09-18T06:29:14.389Z,9.59
2022-09-18T06:31:15.921Z,9.6
2022-09-18T06:35:18.134Z,9.6
2022-09-18T06:37:19.980Z,9.62
2022-09-18T06:39:21.409Z,9.61
2022-09-18T06:41:22.741Z,9.62
2022-09-18T06:43:23.946Z,9.6
2022-09-18T06:45:24.846Z,9.66
2022-09-18T06:47:26.195Z,9.7
2022-09-18T06:49:27.738Z,9.69
2022-09-18T06:51:28.775Z,9.69
2022-09-18T06:53:30.343Z,9.71
2022-09-18T06:55:31.481Z,9.72
2022-09-18T06:57:32.441Z,9.71
2022-09-18T06:59:33.598Z,9.73
2022-09-18T07:01:34.691Z,9.73
2022-09-18T07:03:36.558Z,9.76
2022-09-18T07:05:37.877Z,9.78
2022-09-18T07:07:39.606Z,9.8
2022-09-18T07:09:40.921Z,9.81
2022-09-18T07:11:42.820Z,9.82
2022-09-18T07:13:44.774Z,9.83
2022-09-18T07:15:46.275Z,9.84
2022-09-18T07:17:47.821Z,9.86
2022-09-18T07:19:49.687Z,9.85
2022-09-18T07:21:51.556Z,9.89
2022-09-18T07:23:53.366Z,9.92
2022-09-18T07:25:55.247Z,9.93
2022-09-18T07:27:56.538Z,9.95
2022-09-18T07:29:58.337Z,10.05
2022-09-18T07:31:59.859Z,10.05
2022-09-18T07:34:01.747Z,10.1
2022-09-18T07:36:03.493Z,10.18
2022-09-18T07:38:04.729Z,10.19
2022-09-18T07:40:05.899Z,10.18
2022-09-18T07:42:08.987Z,10.23
2022-09-18T07:44:08.707Z,10.23
2022-09-18T07:46:10.550Z,10.27
2022-09-18T07:48:11.963Z,10.23
2022-09-18T07:50:13.233Z,10.25
2022-09-18T07:52:14.357Z,10.28
2022-09-18T07:54:15.316Z,10.32
2022-09-18T07:56:16.533Z,10.37
2022-09-18T07:58:18.173Z,10.39
2022-09-18T08:00:19.395Z,10.4
2022-09-18T08:02:20.521Z,10.47
2022-09-18T08:04:21.903Z,10.47
2022-09-18T08:06:23.175Z,10.58
2022-09-18T08:08:25.045Z,10.55
2022-09-18T08:10:26.511Z,10.7
2022-09-18T08:12:28.290Z,10.69
2022-09-18T08:14:29.334Z,10.68
2022-09-18T08:16:30.478Z,10.74
2022-09-18T08:18:32.290Z,10.72
2022-09-18T08:20:34.030Z,10.79
2022-09-18T08:22:35.840Z,10.83
2022-09-18T08:24:37.362Z,10.87
2022-09-18T08:26:38.933Z,10.79
2022-09-18T08:28:40.015Z,10.94
2022-09-18T08:30:41.706Z,10.99
2022-09-18T08:32:43.055Z,10.93
2022-09-18T08:34:44.743Z,10.99
2022-09-18T08:36:45.796Z,10.95
2022-09-18T08:38:47.091Z,11.08
2022-09-18T08:40:48.130Z,11.13
2022-09-18T08:44:51.465Z,11.17
2022-09-18T08:46:52.725Z,11.01
2022-09-18T08:48:53.938Z,11.09
2022-09-18T08:50:55.422Z,11.08
2022-09-18T08:52:57.210Z,11.2
2022-09-18T08:54:58.644Z,11.27
2022-09-18T08:59:01.455Z,11.44
2022-09-18T09:01:02.401Z,11.23
2022-09-18T09:03:03.895Z,11.29
2022-09-18T09:05:05.489Z,11.37
2022-09-18T09:07:06.403Z,11.37
2022-09-18T09:09:12.596Z,11.35
2022-09-18T09:11:09.144Z,11.43
2022-09-18T09:13:10.477Z,11.32
2022-09-18T09:15:11.940Z,11.44
2022-09-18T09:17:13.165Z,11.4
2022-09-18T09:19:14.216Z,11.39
2022-09-18T09:21:15.624Z,11.29
2022-09-18T09:23:17.079Z,11.27
2022-09-18T09:25:18.689Z,11.16
2022-09-18T09:27:19.832Z,11.14
2022-09-18T09:29:21.007Z,11.05
2022-09-18T09:31:22.862Z,11.02
2022-09-18T09:33:24.352Z,11.03
2022-09-18T09:35:25.467Z,11.03
2022-09-18T09:37:28.698Z,11.11
2022-09-18T09:39:28.537Z,11.1
2022-09-18T09:41:29.589Z,11.06
2022-09-18T09:43:30.731Z,11.11
2022-09-18T09:45:31.783Z,11.08
2022-09-18T09:47:32.821Z,11.11
2022-09-18T09:49:34.575Z,11.23
2022-09-18T09:51:35.874Z,11.33
2022-09-18T09:53:37.298Z,11.44
2022-09-18T09:55:39.024Z,11.44
2022-09-18T09:57:40.072Z,11.65
2022-09-18T09:59:41.910Z,11.63
2022-09-18T10:01:43.352Z,11.55
2022-09-18T10:03:44.220Z,11.69
2022-09-18T10:05:48.391Z,11.75
2022-09-18T10:07:47.657Z,11.82
2022-09-18T10:09:48.910Z,11.73
2022-09-18T10:11:51.354Z,11.74
2022-09-18T10:13:51.580Z,11.75
2022-09-18T10:15:53.473Z,11.74
2022-09-18T10:17:55.052Z,11.73
2022-09-18T10:19:56.193Z,11.76
2022-09-18T10:21:57.905Z,11.78
2022-09-18T10:23:59.557Z,11.83
2022-09-18T10:26:00.959Z,11.9
2022-09-18T10:28:01.994Z,11.97
2022-09-18T10:30:03.364Z,12.1
2022-09-18T10:32:04.743Z,12.2
2022-09-18T10:34:05.810Z,12.17
2022-09-18T10:36:06.915Z,12.05
2022-09-18T10:38:08.411Z,12.08
2022-09-18T10:40:09.639Z,12.04
2022-09-18T10:42:10.910Z,12.08
2022-09-18T10:44:12.661Z,11.95
2022-09-18T10:46:14.090Z,11.89
2022-09-18T10:48:15.171Z,11.93
2022-09-18T10:50:16.896Z,11.93
2022-09-18T10:52:19.085Z,11.88
2022-09-18T10:54:20.729Z,11.86
2022-09-18T10:56:22.485Z,11.89
2022-09-18T10:58:24.140Z,11.88
2022-09-18T11:00:25.645Z,11.82
2022-09-18T11:02:27.225Z,11.88
2022-09-18T11:04:28.568Z,11.93
2022-09-18T11:06:29.861Z,11.87
2022-09-18T11:08:30.950Z,12.02
2022-09-18T11:10:32.774Z,12.15
2022-09-18T11:12:34.516Z,12.09
2022-09-18T11:14:35.900Z,12.06
2022-09-18T11:16:37.662Z,12.17
2022-09-18T11:18:39.260Z,12.11
2022-09-18T11:20:41.059Z,12.27
2022-09-18T11:22:42.488Z,12.21
2022-09-18T11:24:47.257Z,12.31
2022-09-18T11:26:45.567Z,12.44
2022-09-18T11:27:29.383Z,12.37
2022-09-18T11:29:30.673Z,12.32
2022-09-18T11:31:31.982Z,12.36
2022-09-18T11:33:33.091Z,12.41
2022-09-18T11:35:34.247Z,12.29
2022-09-18T11:37:35.900Z,12.34
2022-09-18T11:39:37.317Z,12.32
2022-09-18T11:41:38.732Z,12.32
2022-09-18T11:43:39.625Z,12.36
2022-09-18T11:45:40.585Z,12.4
2022-09-18T11:47:41.906Z,12.49
2022-09-18T11:49:43.622Z,12.5
2022-09-18T11:51:45.319Z,12.55
2022-09-18T11:53:46.934Z,12.74
2022-09-18T11:55:48.032Z,12.87
2022-09-18T11:57:49.736Z,13.03
2022-09-18T11:59:51.508Z,13.07
2022-09-18T12:01:52.975Z,13.16
2022-09-18T12:03:53.963Z,12.98
2022-09-18T12:05:55.297Z,13.09
2022-09-18T12:07:54.901Z,12.91
2022-09-18T12:09:56.051Z,12.53
2022-09-18T12:11:57.025Z,12.21
2022-09-18T12:13:58.443Z,12.24
2022-09-18T12:15:59.598Z,12.27
2022-09-18T12:18:00.941Z,12.3
2022-09-18T12:20:02.332Z,12.28
2022-09-18T12:22:03.398Z,12.24
2022-09-18T12:24:04.475Z,12.14
2022-09-18T12:26:06.073Z,12.27
2022-09-18T12:28:07.436Z,12.31
2022-09-18T12:30:09.023Z,12.43
2022-09-18T12:32:10.192Z,12.5
2022-09-18T12:34:11.573Z,12.65
2022-09-18T12:36:12.688Z,12.61
2022-09-18T12:38:14.438Z,12.74
2022-09-18T12:40:16.167Z,12.78
2022-09-18T12:42:17.594Z,12.74
2022-09-18T12:44:19.271Z,12.73
2022-09-18T12:46:20.423Z,12.76
2022-09-18T12:48:21.970Z,12.79
2022-09-18T12:50:24.383Z,12.85
2022-09-18T12:52:27.711Z,12.87
2022-09-18T12:54:27.547Z,13.04
2022-09-18T12:56:28.921Z,12.99
2022-09-18T12:58:30.489Z,12.93
2022-09-18T13:00:32.177Z,12.77
2022-09-18T13:02:33.600Z,12.82
2022-09-18T13:04:35.020Z,12.8
2022-09-18T13:06:36.582Z,12.81
2022-09-18T13:08:38.326Z,12.7
2022-09-18T13:10:39.768Z,12.84
2022-09-18T13:12:41.438Z,12.78
2022-09-18T13:14:43.137Z,12.86
2022-09-18T13:16:49.602Z,12.8
2022-09-18T13:18:47.342Z,12.86
2022-09-18T13:20:48.617Z,12.74
2022-09-18T13:22:53.259Z,12.74
2022-09-18T13:24:51.540Z,12.75
2022-09-18T13:26:53.045Z,12.54
2022-09-18T13:28:54.234Z,12.5
2022-09-18T13:30:55.279Z,12.33
2022-09-18T13:32:56.395Z,12.25
2022-09-18T13:34:57.849Z,12.19
2022-09-18T13:36:59.458Z,12.17
2022-09-18T13:39:00.648Z,12.14
2022-09-18T13:41:01.625Z,12.15
2022-09-18T13:43:02.813Z,12.14
2022-09-18T13:45:04.449Z,11.95
2022-09-18T13:47:06.350Z,11.85
2022-09-18T13:49:08.004Z,11.82
2022-09-18T13:51:09.589Z,11.74
2022-09-18T13:53:11.440Z,11.8
2022-09-18T13:55:13.111Z,11.81
2022-09-18T13:57:15.256Z,11.83
2022-09-18T13:59:16.704Z,11.88
2022-09-18T14:01:17.709Z,11.9
2022-09-18T14:03:19.369Z,11.94
2022-09-18T14:05:20.743Z,11.96
2022-09-18T14:07:21.673Z,11.91
2022-09-18T14:09:24.051Z,11.88
2022-09-18T14:11:25.610Z,11.88
2022-09-18T14:13:27.495Z,11.93
2022-09-18T14:15:29.295Z,11.88
2022-09-18T14:17:31.143Z,11.91
2022-09-18T14:19:32.525Z,11.86
2022-09-18T14:21:33.989Z,11.84
2022-09-18T14:23:34.977Z,11.81
2022-09-18T14:25:36.660Z,11.86
2022-09-18T14:27:38.504Z,11.84
2022-09-18T14:29:39.691Z,11.94
2022-09-18T14:31:41.401Z,11.86
2022-09-18T14:33:42.954Z,11.84
2022-09-18T14:35:44.875Z,11.82
2022-09-18T14:37:46.234Z,11.84
2022-09-18T14:39:47.386Z,11.78
2022-09-18T14:41:48.986Z,11.82
2022-09-18T14:43:50.015Z,11.82
2022-09-18T14:45:51.652Z,11.82
2022-09-18T14:47:53.407Z,11.89
2022-09-18T14:49:55.240Z,11.89
2022-09-18T14:52:03.829Z,11.88
2022-09-18T14:53:58.000Z,11.94
2022-09-18T14:55:59.743Z,12.01
2022-09-18T14:58:00.941Z,12.01
2022-09-18T15:00:02.658Z,11.97
2022-09-18T15:02:04.018Z,11.94
2022-09-18T15:04:05.186Z,11.92
2022-09-18T15:06:06.633Z,11.89
2022-09-18T15:08:08.358Z,11.86
2022-09-18T15:10:09.403Z,11.85
2022-09-18T15:12:10.504Z,11.84
2022-09-18T15:14:12.102Z,11.85
2022-09-18T15:16:14.029Z,11.87
2022-09-18T15:18:15.110Z,11.91
2022-09-18T15:20:16.175Z,11.91
2022-09-18T15:22:17.244Z,11.93
2022-09-18T15:24:18.470Z,11.93
2022-09-18T15:26:20.176Z,11.93
2022-09-18T15:28:21.642Z,11.92
2022-09-18T15:30:23.301Z,11.87
2022-09-18T15:32:24.291Z,11.88
2022-09-18T15:34:25.827Z,11.93
2022-09-18T15:36:27.633Z,11.86
2022-09-18T15:38:29.387Z,11.84
2022-09-18T15:40:30.534Z,11.8
2022-09-18T15:42:31.514Z,11.78
2022-09-18T15:44:33.210Z,11.79
2022-09-18T15:46:35.123Z,11.76
2022-09-18T15:48:36.738Z,11.78
2022-09-18T15:50:37.741Z,11.75
2022-09-18T15:52:38.897Z,11.78
2022-09-18T15:54:40.009Z,11.73
2022-09-18T15:56:41.683Z,11.75
2022-09-18T15:58:43.601Z,11.81
2022-09-18T16:00:44.924Z,11.78
2022-09-18T16:02:46.573Z,11.79
2022-09-18T16:04:47.855Z,11.8
2022-09-18T16:06:49.238Z,11.75
2022-09-18T16:08:50.923Z,11.72
2022-09-18T16:10:52.622Z,11.61
2022-09-18T16:12:54.137Z,11.55
2022-09-18T16:14:55.739Z,11.58
2022-09-18T16:16:57.187Z,11.62
2022-09-18T16:18:58.819Z,11.52
2022-09-18T16:21:00.125Z,11.72
2022-09-18T16:23:01.902Z,11.63
2022-09-18T16:25:03.376Z,11.57
2022-09-18T16:27:05.123Z,11.49
2022-09-18T16:29:06.593Z,11.52
2022-09-18T16:31:07.982Z,11.55
2022-09-18T16:33:09.413Z,11.55
2022-09-18T16:35:11.242Z,11.69
2022-09-18T16:37:12.969Z,11.74
2022-09-18T16:39:14.153Z,11.71
2022-09-18T16:41:15.765Z,11.74
2022-09-18T16:43:17.458Z,11.77
2022-09-18T16:45:19.215Z,11.78
2022-09-18T16:47:20.389Z,11.78
2022-09-18T16:49:21.537Z,11.74
2022-09-18T16:51:23.141Z,11.74
2022-09-18T16:53:24.158Z,11.69
2022-09-18T16:55:25.120Z,11.74
2022-09-18T16:57:26.789Z,11.78
2022-09-18T16:59:27.826Z,11.72
2022-09-18T17:01:36.209Z,11.76
2022-09-18T17:03:30.763Z,11.7
2022-09-18T17:05:32.432Z,11.75
2022-09-18T17:07:33.508Z,11.68
2022-09-18T17:09:35.313Z,11.68
2022-09-18T17:11:36.539Z,11.72
2022-09-18T17:13:37.977Z,11.67
2022-09-18T17:15:39.539Z,11.53
2022-09-18T17:17:40.610Z,11.55
2022-09-18T17:19:41.794Z,11.54
2022-09-18T17:21:43.359Z,11.54
2022-09-18T17:23:45.324Z,11.5
2022-09-18T17:25:46.991Z,11.5
2022-09-18T17:27:47.999Z,11.38
2022-09-18T17:29:49.486Z,11.34
2022-09-18T17:31:50.690Z,11.28
2022-09-18T17:33:51.611Z,11.4
2022-09-18T17:35:53.233Z,11.31
2022-09-18T17:37:54.599Z,11.15
2022-09-18T17:39:55.836Z,11.06
2022-09-18T17:41:57.492Z,10.96
2022-09-18T17:43:58.841Z,10.86
2022-09-18T17:46:00.153Z,10.76
2022-09-18T17:48:01.300Z,10.74
2022-09-18T17:50:02.469Z,10.7
2022-09-18T17:52:03.440Z,10.63
2022-09-18T17:54:05.326Z,10.8
2022-09-18T17:56:06.243Z,10.73
2022-09-18T17:58:07.385Z,10.7
2022-09-18T18:00:08.883Z,10.74
2022-09-18T18:02:09.894Z,10.77
2022-09-18T18:04:11.723Z,10.62
2022-09-18T18:06:13.076Z,10.6
2022-09-18T18:08:14.656Z,10.5
2022-09-18T18:12:17.703Z,10.5
2022-09-18T18:13:01.530Z,10.48
2022-09-18T18:17:04.391Z,10.4
2022-09-18T18:19:05.854Z,10.31
2022-09-18T18:21:07.498Z,10.28
2022-09-18T18:23:12.607Z,10.19
2022-09-18T18:25:10.602Z,10.25
2022-09-18T18:27:11.939Z,10.2
2022-09-18T18:29:13.575Z,10.16
2022-09-18T18:31:15.390Z,10.09
2022-09-18T18:33:16.754Z,9.99
2022-09-18T18:35:18.121Z,10.07
2022-09-18T18:37:19.576Z,10.08
2022-09-18T18:39:20.600Z,10.08
2022-09-18T18:41:22.117Z,10
2022-09-18T18:43:23.773Z,9.96
2022-09-18T18:45:25.641Z,10.07
2022-09-18T18:47:27.408Z,10.11
2022-09-18T18:49:29.036Z,10.05
2022-09-18T18:51:30.189Z,9.99
2022-09-18T18:53:31.227Z,9.94
2022-09-18T18:55:32.695Z,9.98
2022-09-18T18:57:34.524Z,9.85
2022-09-18T18:59:36.022Z,9.8
2022-09-18T19:01:37.467Z,9.8
2022-09-18T19:03:40.009Z,9.81
2022-09-18T19:05:40.193Z,9.82
2022-09-18T19:07:41.232Z,9.81
2022-09-18T19:09:42.726Z,9.88
2022-09-18T19:11:43.860Z,9.86
2022-09-18T19:13:44.938Z,9.84
2022-09-18T19:15:46.023Z,9.82
2022-09-18T19:17:47.926Z,9.92
2022-09-18T19:19:49.484Z,9.81
2022-09-18T19:21:51.026Z,9.9
2022-09-18T19:23:52.655Z,9.84
2022-09-18T19:25:54.076Z,9.93
2022-09-18T19:27:55.945Z,9.87
2022-09-18T19:29:57.213Z,9.83
2022-09-18T19:31:58.211Z,9.8
2022-09-18T19:34:00.051Z,9.8
2022-09-18T19:36:01.955Z,9.74
2022-09-18T19:38:03.740Z,9.66
2022-09-18T19:40:05.033Z,9.67
2022-09-18T19:42:06.398Z,9.66
2022-09-18T19:44:07.582Z,9.58
2022-09-18T19:46:08.620Z,9.59
2022-09-18T19:48:09.716Z,9.56
2022-09-18T19:50:11.092Z,9.56
2022-09-18T19:52:12.141Z,9.56
2022-09-18T19:54:13.283Z,9.55
2022-09-18T19:56:27.776Z,9.54
2022-09-18T19:58:15.941Z,9.53
2022-09-18T20:00:17.116Z,9.51
2022-09-18T20:02:18.824Z,9.52
2022-09-18T20:04:20.188Z,9.52
2022-09-18T20:06:21.449Z,9.54
2022-09-18T20:08:22.483Z,9.53
2022-09-18T20:10:24.102Z,9.49
2022-09-18T20:12:25.155Z,9.51
2022-09-18T20:14:26.266Z,9.49
2022-09-18T20:16:28.062Z,9.43
2022-09-18T20:18:29.158Z,9.4
2022-09-18T20:20:30.696Z,9.34
2022-09-18T20:22:32.384Z,9.34
2022-09-18T20:24:33.728Z,9.34
2022-09-18T20:26:35.406Z,9.3
2022-09-18T20:30:38.116Z,9.22
2022-09-18T20:32:39.111Z,9.22
2022-09-18T20:34:42.865Z,9.27
2022-09-18T20:36:41.823Z,9.25
2022-09-18T20:38:43.545Z,9.2
2022-09-18T20:40:45.067Z,9.25
2022-09-18T20:42:46.165Z,9.29
2022-09-18T20:44:47.145Z,9.24
2022-09-18T20:46:48.989Z,9.18
2022-09-18T20:48:50.927Z,9.18
2022-09-18T20:50:52.621Z,9.18
2022-09-18T20:52:53.792Z,9.15
2022-09-18T20:54:55.140Z,9.09
2022-09-18T20:56:56.151Z,8.59
2022-09-18T20:58:57.911Z,8.3
2022-09-18T21:00:58.904Z,8.23
2022-09-18T21:03:00.222Z,8.01
2022-09-18T21:05:01.755Z,7.89
2022-09-18T21:07:11.179Z,7.85
2022-09-18T21:09:04.290Z,7.8
2022-09-18T21:11:05.904Z,7.79
2022-09-18T21:13:07.297Z,7.73
2022-09-18T21:15:08.737Z,7.66
2022-09-18T21:17:10.491Z,7.67
2022-09-18T21:19:11.842Z,7.62
2022-09-18T21:21:13.586Z,7.54
2022-09-18T21:23:14.864Z,7.6
2022-09-18T21:25:15.849Z,7.63
2022-09-18T21:27:17.610Z,7.56
2022-09-18T21:29:19.021Z,7.5
2022-09-18T21:31:20.969Z,7.54
2022-09-18T21:33:21.939Z,7.54
2022-09-18T21:35:23.892Z,7.53
2022-09-18T21:37:25.571Z,7.5
2022-09-18T21:39:26.960Z,7.52
2022-09-18T21:41:28.262Z,7.49
2022-09-18T21:43:29.735Z,7.46
2022-09-18T21:45:31.131Z,7.46
2022-09-18T21:47:32.380Z,7.47
2022-09-18T21:49:34.170Z,7.41
2022-09-18T21:51:35.588Z,7.42
2022-09-18T21:53:36.905Z,7.39
2022-09-18T21:55:38.483Z,7.42
2022-09-18T21:57:40.069Z,7.42
2022-09-18T21:59:41.143Z,7.42
2022-09-18T22:01:43.083Z,7.44
2022-09-18T22:03:44.099Z,7.42
2022-09-18T22:05:45.970Z,7.38
2022-09-18T22:07:47.276Z,7.33
2022-09-18T22:09:48.520Z,7.34
2022-09-18T22:11:50.347Z,7.31
2022-09-18T22:13:51.689Z,7.32
2022-09-18T22:15:53.442Z,7.37
2022-09-18T22:17:54.656Z,7.3
2022-09-18T22:19:56.066Z,7.32
2022-09-18T22:21:57.916Z,7.17
2022-09-18T22:23:59.082Z,7.13
2022-09-18T22:26:01.920Z,7.1
2022-09-18T22:28:02.097Z,7.07
2022-09-18T22:30:03.113Z,7.07
2022-09-18T22:32:04.265Z,7.06
2022-09-18T22:34:06.201Z,7.08
2022-09-18T22:36:07.481Z,7.03
2022-09-18T22:38:08.801Z,7
2022-09-18T22:40:10.481Z,6.97
2022-09-18T22:42:11.975Z,7.06
2022-09-18T22:44:13.896Z,7.05
2022-09-18T22:46:15.025Z,6.99
2022-09-18T22:48:16.269Z,7.01
2022-09-18T22:50:17.885Z,6.96
2022-09-18T22:52:18.741Z,6.91
2022-09-18T22:54:20.006Z,6.87
2022-09-18T22:56:21.083Z,6.81
2022-09-18T22:58:22.880Z,6.76
2022-09-18T23:00:24.495Z,6.65
2022-09-18T23:02:25.573Z,6.59
2022-09-18T23:04:27.496Z,6.57
2022-09-18T23:06:28.748Z,6.52
2022-09-18T23:08:30.122Z,6.49
2022-09-18T23:10:31.384Z,6.69
2022-09-18T23:12:32.999Z,6.76
2022-09-18T23:14:34.135Z,6.69
2022-09-18T23:16:35.602Z,6.64
2022-09-18T23:18:36.923Z,6.66
2022-09-18T23:20:38.657Z,6.73
2022-09-18T23:22:39.985Z,6.65
2022-09-18T23:24:41.881Z,6.54
2022-09-18T23:26:42.940Z,6.51
2022-09-18T23:28:44.127Z,6.55
2022-09-18T23:30:45.366Z,6.58
2022-09-18T23:32:47.080Z,6.64
2022-09-18T23:34:48.474Z,6.62
2022-09-18T23:36:51.309Z,6.71
2022-09-18T23:38:51.251Z,6.58
2022-09-18T23:40:52.736Z,6.58
2022-09-18T23:42:54.556Z,6.52
2022-09-18T23:44:55.897Z,6.43
2022-09-18T23:46:56.990Z,6.57
2022-09-18T23:48:58.716Z,6.6
2022-09-18T23:50:59.972Z,6.54
2022-09-18T23:53:01.215Z,6.54
2022-09-18T23:55:02.573Z,6.52
2022-09-18T23:57:03.863Z,6.51
2022-09-18T23:59:05.827Z,6.56
